Time;durP1;ratioP1;P1;durP2;ratioP2;P2;SDS_P1;SDS_P2;PMS_P1;PMS_P2;Temp;Humidity;BMP_temperature;BMP_pressure;BME280_temperature;BME280_humidity;BME280_pressure;Samples;Min_cycle;Max_cycle;Signal;HPM_P1;HPM_P2
2021/12/10 00:01:47;;;;;;;;;;;;;;;;;;5010888;28;19980;-88
2021/12/10 00:04:15;;;;;;;;;;;;;;;;;;5011813;28;19975;-88
2021/12/10 00:06:47;;;;;;;;;;;;;;;;;;5012100;28;19926;-89
2021/12/10 00:09:17;;;;;;;;;;;;;;;;;;5009861;28;19928;-88
2021/12/10 00:11:46;;;;;;;;;;;;;;;;;;5028002;28;19921;-88
2021/12/10 00:14:20;;;;;;;;;;;;;;;;;;5028124;28;19952;-88
2021/12/10 00:16:48;;;;;;;;;;;;;;;;;;5027542;28;19925;-89
2021/12/10 00:19:36;;;;;;;;;;;;;;;;;;5011361;28;19925;-89
2021/12/10 00:22:05;;;;;;;;;;;;;;;;;;5014194;28;19921;-88
2021/12/10 00:24:31;;;;;;;;;;;;;;;;;;5026479;28;19930;-89
2021/12/10 00:26:57;;;;;;;;;;;;;;;;;;5029072;28;19921;-88
2021/12/10 00:29:25;;;;;;;;;;;;;;;;;;5014465;28;19921;-89
2021/12/10 00:32:07;;;;;;;;;;;;;;;;;;5014615;28;19948;-89
2021/12/10 00:34:37;;;;;;;;;;;;;;;;;;5030895;28;19932;-88
2021/12/10 00:37:04;;;;;;;;;;;;;;;;;;5028705;28;19925;-89
2021/12/10 00:39:31;;;;;;;;;;;;;;;;;;5027272;28;19921;-89
2021/12/10 00:41:57;;;;;;;;;;;;;;;;;;5031736;28;19921;-88
2021/12/10 00:44:23;;;;;;;;;;;;;;;;;;5025186;28;19985;-89
2021/12/10 00:46:48;;;;;;;;;;;;;;;;;;5029435;28;19929;-88
2021/12/10 00:49:13;;;;;;;;;;;;;;;;;;5028390;28;19929;-89
2021/12/10 00:51:39;;;;;;;;;;;;;;;;;;5029645;28;19928;-89
2021/12/10 00:54:06;;;;;;;;;;;;;;;;;;5028222;28;19925;-85
2021/12/10 00:56:32;;;;;;;;;;;;;;;;;;5031036;28;19929;-86
2021/12/10 00:58:57;;;;;;;;;;;;;;;;;;5027571;28;19921;-86
2021/12/10 01:01:24;;;;;;;;;;;;;;;;;;5021458;28;19936;-85
2021/12/10 01:03:54;;;;;;;;;;;;;;;;;;5036371;28;20319;-86
2021/12/10 01:06:19;;;;;;;;;;;;;;;;;;5029850;28;19921;-86
2021/12/10 01:08:48;;;;;;;;;;;;;;;;;;5025002;28;19921;-87
2021/12/10 01:11:34;;;;;;;;;;;;;;;;;;5034063;28;19932;-87
2021/12/10 01:14:11;;;;;;;;;;;;;;;;;;5033282;28;20020;-87
2021/12/10 01:27:36;;;;;;;;;;;;;;;;;;5025426;28;19925;-86
2021/12/10 01:30:24;;;;;;;;;;;;;;;;;;5029632;28;20241;-86
2021/12/10 01:32:51;;;;;;;;;;;;;;;;;;5014306;28;20309;-86
2021/12/10 01:35:18;;;;;;;;;;;;;;;;;;5034691;28;19975;-86
2021/12/10 01:37:43;;;;;;;;;;;;;;;;;;5033131;28;20388;-86
2021/12/10 01:40:08;;;;;;;;;;;;;;;;;;5034735;28;19917;-87
2021/12/10 01:42:42;;;;;;;;;;;;;;;;;;5029898;28;20302;-87
2021/12/10 01:45:18;;;;;;;;;;;;;;;;;;5013662;28;19932;-86
2021/12/10 01:47:43;;;;;;;;;;;;;;;;;;5014475;28;19926;-86
2021/12/10 01:50:09;;;;;;;;;;;;;;;;;;5031225;28;20346;-86
2021/12/10 01:52:34;;;;;;;;;;;;;;;;;;5032550;28;19965;-88
2021/12/10 01:55:00;;;;;;;;;;;;;;;;;;5033715;28;19932;-86
2021/12/10 01:57:26;;;;;;;;;;;;;;;;;;5032899;28;19986;-85
2021/12/10 01:59:52;;;;;;;;;;;;;;;;;;5026279;28;20004;-86
2021/12/10 02:02:18;;;;;;;;;;;;;;;;;;5036889;28;20032;-87
2021/12/10 02:04:45;;;;;;;;;;;;;;;;;;5024276;28;19940;-89
2021/12/10 02:07:11;;;;;;;;;;;;;;;;;;5026789;28;20360;-88
2021/12/10 02:09:39;;;;;;;;;;;;;;;;;;5024865;28;19931;-88
2021/12/10 02:12:07;;;;;;;;;;;;;;;;;;5023150;28;19921;-87
2021/12/10 02:14:32;;;;;;;;;;;;;;;;;;5025921;28;20012;-86
2021/12/10 02:16:59;;;;;;;;;;;;;;;;;;5030072;28;20071;-85
2021/12/10 02:19:24;;;;;;;;;;;;;;;;;;5027042;28;19921;-85
2021/12/10 02:21:51;;;;;;;;;;;;;;;;;;5031811;28;20078;-86
2021/12/10 02:24:18;;;;;;;;;;;;;;;;;;5017370;28;20026;-86
2021/12/10 02:26:48;;;;;;;;;;;;;;;;;;5033473;28;19928;-87
2021/12/10 02:29:13;;;;;;;;;;;;;;;;;;5030424;28;19929;-87
2021/12/10 02:31:40;;;;;;;;;;;;;;;;;;5030601;28;19936;-86
2021/12/10 02:34:05;;;;;;;;;;;;;;;;;;5031319;28;20011;-87
2021/12/10 02:36:31;;;;;;;;;;;;;;;;;;5033838;28;19932;-86
2021/12/10 02:38:56;;;;;;;;;;;;;;;;;;5031739;28;19933;-86
2021/12/10 02:41:25;;;;;;;;;;;;;;;;;;5033089;28;19971;-87
2021/12/10 02:43:53;;;;;;;;;;;;;;;;;;5030947;28;19921;-86
2021/12/10 02:46:19;;;;;;;;;;;;;;;;;;5030096;28;19929;-86
2021/12/10 02:48:44;;;;;;;;;;;;;;;;;;5031030;28;19921;-86
2021/12/10 02:51:12;;;;;;;;;;;;;;;;;;5015515;28;19959;-86
2021/12/10 02:53:42;;;;;;;;;;;;;;;;;;5030828;28;20453;-87
2021/12/10 02:56:10;;;;;;;;;;;;;;;;;;5029103;28;20313;-86
2021/12/10 02:58:35;;;;;;;;;;;;;;;;;;5031497;28;20307;-87
2021/12/10 03:01:04;;;;;;;;;;;;;;;;;;5025383;28;19957;-86
2021/12/10 03:03:29;;;;;;;;;;;;;;;;;;5029332;28;19913;-87
2021/12/10 03:05:54;;;;;;;;;;;;;;;;;;5028483;28;19932;-86
2021/12/10 03:08:20;;;;;;;;;;;;;;;;;;5030009;28;19925;-87
2021/12/10 03:10:45;;;;;;;;;;;;;;;;;;5027161;28;20388;-86
2021/12/10 03:13:10;;;;;;;;;;;;;;;;;;5030914;28;19968;-86
2021/12/10 03:15:36;;;;;;;;;;;;;;;;;;5037930;28;20035;-86
2021/12/10 03:18:03;;;;;;;;;;;;;;;;;;5030872;28;19921;-87
2021/12/10 03:20:29;;;;;;;;;;;;;;;;;;5029778;28;20404;-86
2021/12/10 03:22:57;;;;;;;;;;;;;;;;;;5028548;28;19932;-86
2021/12/10 03:25:23;;;;;;;;;;;;;;;;;;5030428;28;20139;-86
2021/12/10 03:27:48;;;;;;;;;;;;;;;;;;5032893;28;19921;-87
2021/12/10 03:30:16;;;;;;;;;;;;;;;;;;5031606;28;20023;-88
2021/12/10 03:32:41;;;;;;;;;;;;;;;;;;5029569;28;19992;-88
2021/12/10 03:35:09;;;;;;;;;;;;;;;;;;5009921;28;19921;-88
2021/12/10 03:37:37;;;;;;;;;;;;;;;;;;5014202;28;19917;-88
2021/12/10 03:40:07;;;;;;;;;;;;;;;;;;5030183;28;20389;-87
2021/12/10 03:42:32;;;;;;;;;;;;;;;;;;5029872;28;19937;-87
2021/12/10 03:44:58;;;;;;;;;;;;;;;;;;5023875;28;20273;-87
2021/12/10 03:47:23;;;;;;;;;;;;;;;;;;5030222;28;19964;-88
2021/12/10 03:49:48;;;;;;;;;;;;;;;;;;5025877;28;19932;-87
2021/12/10 03:52:13;;;;;;;;;;;;;;;;;;5030282;28;19935;-88
2021/12/10 03:54:39;;;;;;;;;;;;;;;;;;5028520;28;19926;-89
2021/12/10 03:57:05;;;;;;;;;;;;;;;;;;5029560;28;19921;-88
2021/12/10 03:59:30;;;;;;;;;;;;;;;;;;5029782;28;21343;-87
2021/12/10 04:01:58;;;;;;;;;;;;;;;;;;5033204;28;19960;-88
2021/12/10 04:04:26;;;;;;;;;;;;;;;;;;5032726;28;20277;-88
2021/12/10 04:06:52;;;;;;;;;;;;;;;;;;5014002;28;19929;-87
2021/12/10 04:09:18;;;;;;;;;;;;;;;;;;5028564;28;20598;-88
2021/12/10 04:11:43;;;;;;;;;;;;;;;;;;5031274;28;19933;-88
2021/12/10 04:14:08;;;;;;;;;;;;;;;;;;5027453;28;20318;-87
2021/12/10 04:16:34;;;;;;;;;;;;;;;;;;5031032;28;19921;-87
2021/12/10 04:19:02;;;;;;;;;;;;;;;;;;5027618;28;19921;-87
2021/12/10 04:21:27;;;;;;;;;;;;;;;;;;5013636;28;19925;-87
2021/12/10 04:23:53;;;;;;;;;;;;;;;;;;5014339;28;19952;-87
2021/12/10 04:26:21;;;;;;;;;;;;;;;;;;5029312;28;19935;-86
2021/12/10 04:28:46;;;;;;;;;;;;;;;;;;5029358;28;19939;-87
2021/12/10 04:31:12;;;;;;;;;;;;;;;;;;5025291;28;19928;-87
2021/12/10 04:33:37;;;;;;;;;;;;;;;;;;5028285;28;20267;-86
2021/12/10 04:36:03;;;;;;;;;;;;;;;;;;5028325;28;20074;-86
2021/12/10 04:38:29;;;;;;;;;;;;;;;;;;5031196;28;19949;-87
2021/12/10 04:40:56;;;;;;;;;;;;;;;;;;5032759;28;20002;-87
2021/12/10 04:43:24;;;;;;;;;;;;;;;;;;5025019;28;19921;-87
2021/12/10 04:45:52;;;;;;;;;;;;;;;;;;5025917;28;19917;-87
2021/12/10 04:48:20;;;;;;;;;;;;;;;;;;5028096;28;20239;-87
2021/12/10 04:50:45;;;;;;;;;;;;;;;;;;5042467;28;19929;-87
2021/12/10 04:53:11;;;;;;;;;;;;;;;;;;5031234;28;20232;-87
2021/12/10 04:55:36;;;;;;;;;;;;;;;;;;5032574;28;19921;-87
2021/12/10 04:58:03;;;;;;;;;;;;;;;;;;5029068;28;20022;-87
2021/12/10 05:00:31;;;;;;;;;;;;;;;;;;5029582;28;19916;-87
2021/12/10 05:02:57;;;;;;;;;;;;;;;;;;5014484;28;19921;-87
2021/12/10 05:05:22;;;;;;;;;;;;;;;;;;5030409;28;19935;-87
2021/12/10 05:07:47;;;;;;;;;;;;;;;;;;5026950;28;20506;-87
2021/12/10 05:10:13;;;;;;;;;;;;;;;;;;5027641;28;20359;-88
2021/12/10 05:12:42;;;;;;;;;;;;;;;;;;5014065;28;19928;-87
2021/12/10 05:15:08;;;;;;;;;;;;;;;;;;5028684;28;19960;-88
2021/12/10 05:17:36;;;;;;;;;;;;;;;;;;5027689;28;20020;-87
2021/12/10 05:20:11;;;;;;;;;;;;;;;;;;5028879;28;20109;-88
2021/12/10 05:22:37;;;;;;;;;;;;;;;;;;5034308;28;19925;-86
2021/12/10 05:25:02;;;;;;;;;;;;;;;;;;5028501;28;19956;-86
2021/12/10 05:27:28;;;;;;;;;;;;;;;;;;5008885;28;19956;-86
2021/12/10 05:29:55;;;;;;;;;;;;;;;;;;5026875;28;20018;-87
2021/12/10 05:32:20;;;;;;;;;;;;;;;;;;5026287;28;20500;-88
2021/12/10 05:34:46;;;;;;;;;;;;;;;;;;5026507;28;20040;-88
2021/12/10 05:37:14;;;;;;;;;;;;;;;;;;5029079;28;19921;-88
2021/12/10 05:39:40;;;;;;;;;;;;;;;;;;5029188;28;19921;-87
2021/12/10 05:42:05;;;;;;;;;;;;;;;;;;5028115;28;19921;-87
2021/12/10 05:44:31;;;;;;;;;;;;;;;;;;5028440;28;19932;-87
2021/12/10 05:46:59;;;;;;;;;;;;;;;;;;5027385;28;20357;-89
2021/12/10 05:49:27;;;;;;;;;;;;;;;;;;5028171;28;19929;-87
2021/12/10 05:51:52;;;;;;;;;;;;;;;;;;5026363;28;19932;-87
2021/12/10 05:54:20;;;;;;;;;;;;;;;;;;5028846;28;19929;-85
2021/12/10 05:56:48;;;;;;;;;;;;;;;;;;5032459;28;19917;-87
2021/12/10 05:59:13;;;;;;;;;;;;;;;;;;5029847;28;19921;-87
2021/12/10 06:01:38;;;;;;;;;;;;;;;;;;5031933;28;20339;-87
2021/12/10 06:04:03;;;;;;;;;;;;;;;;;;5032052;28;19929;-87
2021/12/10 06:06:29;;;;;;;;;;;;;;;;;;5029577;28;20460;-87
2021/12/10 06:08:58;;;;;;;;;;;;;;;;;;5032132;28;19932;-88
2021/12/10 06:11:23;;;;;;;;;;;;;;;;;;5042112;28;19925;-87
2021/12/10 06:13:49;;;;;;;;;;;;;;;;;;5030366;28;20219;-88
2021/12/10 06:16:19;;;;;;;;;;;;;;;;;;5035053;28;19960;-87
2021/12/10 06:18:44;;;;;;;;;;;;;;;;;;5033441;28;19964;-87
2021/12/10 06:21:12;;;;;;;;;;;;;;;;;;5041716;28;19921;-87
2021/12/10 06:23:37;;;;;;;;;;;;;;;;;;5036350;28;19955;-88
2021/12/10 06:26:04;;;;;;;;;;;;;;;;;;5027316;28;20288;-88
2021/12/10 06:28:29;;;;;;;;;;;;;;;;;;5026346;28;19921;-87
2021/12/10 06:30:54;;;;;;;;;;;;;;;;;;5027034;28;20467;-87
2021/12/10 06:33:20;;;;;;;;;;;;;;;;;;5029476;28;20046;-87
2021/12/10 06:35:50;;;;;;;;;;;;;;;;;;5032556;28;19928;-87
2021/12/10 06:38:16;;;;;;;;;;;;;;;;;;5037725;28;20027;-88
2021/12/10 06:40:41;;;;;;;;;;;;;;;;;;5033008;28;19961;-88
2021/12/10 06:43:09;;;;;;;;;;;;;;;;;;5039650;28;19921;-88
2021/12/10 06:45:35;;;;;;;;;;;;;;;;;;5031734;28;19955;-88
2021/12/10 06:48:01;;;;;;;;;;;;;;;;;;5033917;28;20366;-83
2021/12/10 06:50:30;;;;;;;;;;;;;;;;;;5036855;28;19932;-86
2021/12/10 06:52:55;;;;;;;;;;;;;;;;;;5034960;28;20316;-85
2021/12/10 06:55:21;;;;;;;;;;;;;;;;;;5032601;28;19921;-84
2021/12/10 06:57:46;;;;;;;;;;;;;;;;;;5040213;28;19955;-89
2021/12/10 07:00:13;;;;;;;;;;;;;;;;;;5040479;28;19921;-86
2021/12/10 07:02:41;;;;;;;;;;;;;;;;;;5041714;28;20008;-83
2021/12/10 07:05:06;;;;;;;;;;;;;;;;;;5051636;28;19928;-82
2021/12/10 07:07:32;;;;;;;;;;;;;;;;;;5036934;28;19986;-82
2021/12/10 07:09:58;;;;;;;;;;;;;;;;;;5036586;28;19929;-82
2021/12/10 07:12:23;;;;;;;;;;;;;;;;;;5043149;28;19925;-83
2021/12/10 07:14:51;;;;;;;;;;;;;;;;;;5035136;28;20071;-82
2021/12/10 07:17:16;;;;;;;;;;;;;;;;;;5038551;28;19936;-84
2021/12/10 07:19:42;;;;;;;;;;;;;;;;;;5036627;28;19920;-82
2021/12/10 07:22:07;;;;;;;;;;;;;;;;;;5034831;28;19986;-89
2021/12/10 07:24:35;;;;;;;;;;;;;;;;;;5035972;28;19921;-86
2021/12/10 07:27:02;;;;;;;;;;;;;;;;;;5034808;28;20278;-85
2021/12/10 07:29:28;;;;;;;;;;;;;;;;;;5037211;28;19921;-84
2021/12/10 07:31:53;;;;;;;;;;;;;;;;;;5035916;28;19936;-85
2021/12/10 07:34:18;;;;;;;;;;;;;;;;;;5036382;28;19931;-85
2021/12/10 07:36:43;;;;;;;;;;;;;;;;;;5036199;28;19932;-85
2021/12/10 07:39:09;;;;;;;;;;;;;;;;;;5035054;28;20004;-85
2021/12/10 07:41:35;;;;;;;;;;;;;;;;;;5036522;28;20348;-84
2021/12/10 07:44:00;;;;;;;;;;;;;;;;;;5035247;28;19921;-84
2021/12/10 07:46:28;;;;;;;;;;;;;;;;;;5044016;28;20373;-85
2021/12/10 07:48:53;;;;;;;;;;;;;;;;;;5046596;28;19932;-84
2021/12/10 07:51:21;;;;;;;;;;;;;;;;;;5035846;28;19921;-85
2021/12/10 07:53:51;;;;;;;;;;;;;;;;;;5036156;28;20219;-84
2021/12/10 07:56:17;;;;;;;;;;;;;;;;;;5018741;28;20016;-84
2021/12/10 07:58:42;;;;;;;;;;;;;;;;;;5035916;28;20366;-84
2021/12/10 08:01:12;;;;;;;;;;;;;;;;;;5043101;28;19931;-84
2021/12/10 08:03:38;;;;;;;;;;;;;;;;;;5056146;28;19932;-84
2021/12/10 08:06:03;;;;;;;;;;;;;;;;;;5056500;28;19929;-84
2021/12/10 08:08:30;;;;;;;;;;;;;;;;;;5051086;28;19920;-83
2021/12/10 08:10:56;;;;;;;;;;;;;;;;;;5035847;28;20004;-84
2021/12/10 08:13:22;;;;;;;;;;;;;;;;;;5035811;28;19967;-84
2021/12/10 08:15:50;;;;;;;;;;;;;;;;;;5042226;28;19921;-83
2021/12/10 08:18:16;;;;;;;;;;;;;;;;;;5051646;28;20004;-84
2021/12/10 08:20:41;;;;;;;;;;;;;;;;;;5035186;28;19948;-84
2021/12/10 08:23:06;;;;;;;;;;;;;;;;;;5035042;28;19996;-84
2021/12/10 08:25:34;;;;;;;;;;;;;;;;;;5035090;28;19944;-84
2021/12/10 08:28:00;;;;;;;;;;;;;;;;;;5035136;28;19925;-84
2021/12/10 08:30:26;;;;;;;;;;;;;;;;;;5039395;28;19931;-84
2021/12/10 08:32:54;;;;;;;;;;;;;;;;;;5035215;28;19921;-84
2021/12/10 08:35:23;;;;;;;;;;;;;;;;;;5035052;28;19932;-84
2021/12/10 08:37:48;;;;;;;;;;;;;;;;;;5033894;28;20012;-84
2021/12/10 08:40:15;;;;;;;;;;;;;;;;;;5034704;28;20015;-83
2021/12/10 08:42:40;;;;;;;;;;;;;;;;;;5034061;28;20016;-84
2021/12/10 08:45:06;;;;;;;;;;;;;;;;;;5034833;28;19921;-83
2021/12/10 08:47:34;;;;;;;;;;;;;;;;;;5034894;28;19921;-83
2021/12/10 08:49:59;;;;;;;;;;;;;;;;;;5033523;28;19925;-83
2021/12/10 08:52:24;;;;;;;;;;;;;;;;;;5034528;28;20305;-84
2021/12/10 08:54:49;;;;;;;;;;;;;;;;;;5033704;28;20289;-83
2021/12/10 08:57:15;;;;;;;;;;;;;;;;;;5034349;28;20381;-84
2021/12/10 08:59:40;;;;;;;;;;;;;;;;;;5034606;28;20299;-83
2021/12/10 09:02:10;;;;;;;;;;;;;;;;;;5054347;28;19921;-83
2021/12/10 09:04:36;;;;;;;;;;;;;;;;;;5054926;28;20003;-83
2021/12/10 09:07:06;;;;;;;;;;;;;;;;;;5054754;28;20306;-82
2021/12/10 09:09:32;;;;;;;;;;;;;;;;;;5043245;28;20017;-83
2021/12/10 09:11:59;;;;;;;;;;;;;;;;;;5017164;28;19968;-83
2021/12/10 09:14:28;;;;;;;;;;;;;;;;;;5034265;28;20262;-83
2021/12/10 09:16:55;;;;;;;;;;;;;;;;;;5034019;28;19928;-83
2021/12/10 09:19:23;;;;;;;;;;;;;;;;;;5034142;28;19929;-82
2021/12/10 09:21:48;;;;;;;;;;;;;;;;;;5033073;28;20325;-83
2021/12/10 09:24:14;;;;;;;;;;;;;;;;;;5034155;28;19968;-83
2021/12/10 09:26:42;;;;;;;;;;;;;;;;;;5033876;28;19921;-82
2021/12/10 09:29:09;;;;;;;;;;;;;;;;;;5032379;28;19921;-82
2021/12/10 09:31:36;;;;;;;;;;;;;;;;;;5033245;28;19925;-84
2021/12/10 09:34:01;;;;;;;;;;;;;;;;;;5033219;28;20081;-84
2021/12/10 09:36:29;;;;;;;;;;;;;;;;;;5034591;28;20372;-83
2021/12/10 09:38:57;;;;;;;;;;;;;;;;;;5034028;28;20028;-83
2021/12/10 09:41:22;;;;;;;;;;;;;;;;;;5034355;28;19931;-82
2021/12/10 09:43:48;;;;;;;;;;;;;;;;;;5032805;28;19917;-83
2021/12/10 09:46:13;;;;;;;;;;;;;;;;;;5032524;28;19924;-83
2021/12/10 09:48:39;;;;;;;;;;;;;;;;;;5034061;28;19925;-83
2021/12/10 09:51:07;;;;;;;;;;;;;;;;;;5033072;28;19921;-83
2021/12/10 09:53:33;;;;;;;;;;;;;;;;;;5033879;28;19936;-81
2021/12/10 09:56:01;;;;;;;;;;;;;;;;;;5034208;28;19921;-82
2021/12/10 09:58:27;;;;;;;;;;;;;;;;;;5049456;28;19931;-82
2021/12/10 10:00:57;;;;;;;;;;;;;;;;;;5055264;28;19936;-83
2021/12/10 10:03:26;;;;;;;;;;;;;;;;;;5053549;28;19944;-84
2021/12/10 10:05:52;;;;;;;;;;;;;;;;;;5049650;28;19951;-84
2021/12/10 10:08:20;;;;;;;;;;;;;;;;;;5038838;28;20010;-85
2021/12/10 10:10:50;;;;;;;;;;;;;;;;;;5052491;28;19921;-84
2021/12/10 10:13:16;;;;;;;;;;;;;;;;;;5054179;28;19921;-83
2021/12/10 10:15:42;;;;;;;;;;;;;;;;;;5053903;28;20460;-85
2021/12/10 10:18:08;;;;;;;;;;;;;;;;;;5012707;28;19922;-84
2021/12/10 10:20:34;;;;;;;;;;;;;;;;;;5012746;28;19932;-84
2021/12/10 10:23:00;;;;;;;;;;;;;;;;;;5021929;28;20334;-85
2021/12/10 10:25:26;;;;;;;;;;;;;;;;;;5052451;28;19920;-85
2021/12/10 10:27:51;;;;;;;;;;;;;;;;;;5017356;28;19929;-82
2021/12/10 10:30:16;;;;;;;;;;;;;;;;;;5019017;28;20279;-84
2021/12/10 10:32:45;;;;;;;;;;;;;;;;;;5031842;28;19925;-84
2021/12/10 10:35:15;;;;;;;;;;;;;;;;;;5031517;28;19939;-84
2021/12/10 10:37:40;;;;;;;;;;;;;;;;;;5032611;28;19925;-84
2021/12/10 10:40:07;;;;;;;;;;;;;;;;;;5015571;28;19921;-84
2021/12/10 10:42:32;;;;;;;;;;;;;;;;;;5035718;28;19917;-84
2021/12/10 10:45:01;;;;;;;;;;;;;;;;;;5035828;28;19924;-84
2021/12/10 10:47:26;;;;;;;;;;;;;;;;;;5019093;28;19947;-85
2021/12/10 10:50:03;;;;;;;;;;;;;;;;;;5039612;28;20417;-85
2021/12/10 10:52:30;;;;;;;;;;;;;;;;;;5055905;28;19921;-84
2021/12/10 10:55:01;;;;;;;;;;;;;;;;;;5056436;28;20357;-84
2021/12/10 10:57:31;;;;;;;;;;;;;;;;;;5055608;28;20054;-85
2021/12/10 11:00:10;;;;;;;;;;;;;;;;;;5043337;28;20065;-85
2021/12/10 11:02:40;;;;;;;;;;;;;;;;;;5035099;28;19921;-85
2021/12/10 11:05:10;;;;;;;;;;;;;;;;;;5043372;28;19917;-85
2021/12/10 11:07:41;;;;;;;;;;;;;;;;;;5056679;28;19920;-84
2021/12/10 11:10:07;;;;;;;;;;;;;;;;;;5054899;28;19921;-85
2021/12/10 11:12:33;;;;;;;;;;;;;;;;;;5036244;28;19933;-84
2021/12/10 11:14:59;;;;;;;;;;;;;;;;;;5036554;28;19940;-84
2021/12/10 11:17:34;;;;;;;;;;;;;;;;;;5036699;28;19921;-85
2021/12/10 11:20:10;;;;;;;;;;;;;;;;;;5045796;28;20258;-84
2021/12/10 11:22:48;;;;;;;;;;;;;;;;;;5035152;28;19943;-84
2021/12/10 11:25:15;;;;;;;;;;;;;;;;;;5039180;28;20022;-85
2021/12/10 11:27:41;;;;;;;;;;;;;;;;;;5056287;28;19931;-84
2021/12/10 11:30:10;;;;;;;;;;;;;;;;;;5055232;28;19940;-84
2021/12/10 11:32:38;;;;;;;;;;;;;;;;;;5056079;28;19921;-85
2021/12/10 11:35:09;;;;;;;;;;;;;;;;;;5036783;28;19929;-86
2021/12/10 11:37:54;;;;;;;;;;;;;;;;;;5035642;28;19932;-85
2021/12/10 11:40:23;;;;;;;;;;;;;;;;;;5030021;28;19921;-85
2021/12/10 11:42:55;;;;;;;;;;;;;;;;;;5036313;28;19932;-84
2021/12/10 11:45:33;;;;;;;;;;;;;;;;;;5033971;28;19991;-84
2021/12/10 11:48:09;;;;;;;;;;;;;;;;;;5034595;28;19972;-79
2021/12/10 11:50:37;;;;;;;;;;;;;;;;;;5025380;28;20418;-79
2021/12/10 11:53:04;;;;;;;;;;;;;;;;;;5034906;28;19928;-78
2021/12/10 11:55:36;;;;;;;;;;;;;;;;;;5033408;28;19921;-79
2021/12/10 11:58:02;;;;;;;;;;;;;;;;;;5013806;28;19979;-79
2021/12/10 12:00:28;;;;;;;;;;;;;;;;;;5032907;28;19928;-75
2021/12/10 12:03:07;;;;;;;;;;;;;;;;;;5036017;28;19925;-77
2021/12/10 12:05:38;;;;;;;;;;;;;;;;;;5031365;28;19921;-80
2021/12/10 12:08:24;;;;;;;;;;;;;;;;;;5039902;28;19932;-78
2021/12/10 12:10:55;;;;;;;;;;;;;;;;;;5035176;28;19928;-78
2021/12/10 12:15:56;;;;;;;;;;;;;;;;;;5035849;28;19964;-80
2021/12/10 12:18:29;;;;;;;;;;;;;;;;;;5033097;28;20380;-80
2021/12/10 12:20:59;;;;;;;;;;;;;;;;;;5034857;28;19925;-80
2021/12/10 12:26:30;;;;;;;;;;;;;;;;;;5026895;28;19928;-80
2021/12/10 12:29:02;;;;;;;;;;;;;;;;;;5034675;28;19921;-80
2021/12/10 12:31:49;;;;;;;;;;;;;;;;;;5023099;28;19921;-80
2021/12/10 12:34:48;;;;;;;;;;;;;;;;;;5054267;28;19921;-80
2021/12/10 12:37:14;;;;;;;;;;;;;;;;;;5036852;28;19921;-81
2021/12/10 12:39:44;;;;;;;;;;;;;;;;;;5035767;28;20241;-81
2021/12/10 12:42:19;;;;;;;;;;;;;;;;;;5038846;28;19928;-81
2021/12/10 12:44:44;;;;;;;;;;;;;;;;;;5034404;28;20024;-81
2021/12/10 12:47:12;;;;;;;;;;;;;;;;;;5034608;28;20012;-81
2021/12/10 12:49:38;;;;;;;;;;;;;;;;;;5029555;28;19932;-81
2021/12/10 12:52:06;;;;;;;;;;;;;;;;;;5020330;28;19925;-80
2021/12/10 12:54:35;;;;;;;;;;;;;;;;;;5034725;28;20092;-80
2021/12/10 12:57:01;;;;;;;;;;;;;;;;;;5039855;28;19920;-81
2021/12/10 12:59:27;;;;;;;;;;;;;;;;;;5025317;28;20409;-80
2021/12/10 13:01:54;;;;;;;;;;;;;;;;;;5014045;28;19917;-80
2021/12/10 13:04:33;;;;;;;;;;;;;;;;;;5020973;28;19917;-78
2021/12/10 13:07:11;;;;;;;;;;;;;;;;;;5034776;28;19921;-80
2021/12/10 13:09:46;;;;;;;;;;;;;;;;;;5034366;28;20427;-79
2021/12/10 13:12:41;;;;;;;;;;;;;;;;;;5034582;28;19995;-80
2021/12/10 13:15:10;;;;;;;;;;;;;;;;;;5033723;28;20546;-85
2021/12/10 13:17:41;;;;;;;;;;;;;;;;;;5034334;28;19932;-79
2021/12/10 13:20:12;;;;;;;;;;;;;;;;;;5014813;28;20235;-80
2021/12/10 13:22:37;;;;;;;;;;;;;;;;;;5013164;28;19932;-81
2021/12/10 13:25:07;;;;;;;;;;;;;;;;;;5013226;28;19925;-81
2021/12/10 13:27:36;;;;;;;;;;;;;;;;;;5034514;28;19918;-81
2021/12/10 13:30:03;;;;;;;;;;;;;;;;;;5034388;28;19928;-81
2021/12/10 13:32:28;;;;;;;;;;;;;;;;;;5016344;28;19921;-82
2021/12/10 13:34:55;;;;;;;;;;;;;;;;;;5034510;28;20011;-80
2021/12/10 13:37:21;;;;;;;;;;;;;;;;;;5032823;28;19925;-81
2021/12/10 13:39:46;;;;;;;;;;;;;;;;;;5033345;28;19921;-81
2021/12/10 13:42:13;;;;;;;;;;;;;;;;;;5034370;28;19925;-80
2021/12/10 13:44:45;;;;;;;;;;;;;;;;;;5031970;28;20297;-80
2021/12/10 13:47:21;;;;;;;;;;;;;;;;;;5025259;28;19982;-79
2021/12/10 13:49:46;;;;;;;;;;;;;;;;;;5047986;28;19932;-80
2021/12/10 13:52:12;;;;;;;;;;;;;;;;;;5051852;28;19920;-81
2021/12/10 13:54:38;;;;;;;;;;;;;;;;;;5030105;28;19932;-79
2021/12/10 13:57:05;;;;;;;;;;;;;;;;;;5021830;28;20365;-78
2021/12/10 13:59:31;;;;;;;;;;;;;;;;;;5033319;28;19948;-80
2021/12/10 14:02:00;;;;;;;;;;;;;;;;;;5033995;28;19921;-79
2021/12/10 14:04:27;;;;;;;;;;;;;;;;;;5014942;28;20045;-79
2021/12/10 14:06:54;;;;;;;;;;;;;;;;;;5019372;28;19921;-77
2021/12/10 14:09:43;;;;;;;;;;;;;;;;;;5032339;28;19921;-79
2021/12/10 14:12:32;;;;;;;;;;;;;;;;;;5034854;28;19921;-79
2021/12/10 14:15:21;;;;;;;;;;;;;;;;;;5033415;28;20024;-79
2021/12/10 14:18:04;;;;;;;;;;;;;;;;;;5031564;28;20247;-81
2021/12/10 14:20:32;;;;;;;;;;;;;;;;;;5037922;28;19931;-82
2021/12/10 14:23:02;;;;;;;;;;;;;;;;;;5041833;28;19979;-81
2021/12/10 14:25:42;;;;;;;;;;;;;;;;;;5044402;28;19932;-82
2021/12/10 14:28:17;;;;;;;;;;;;;;;;;;5041290;28;19932;-81
2021/12/10 14:30:47;;;;;;;;;;;;;;;;;;5034994;28;19956;-82
2021/12/10 14:33:15;;;;;;;;;;;;;;;;;;5051238;28;20018;-80
2021/12/10 14:35:45;;;;;;;;;;;;;;;;;;5039168;28;19928;-82
2021/12/10 14:38:10;;;;;;;;;;;;;;;;;;5036964;28;20343;-81
2021/12/10 14:40:52;;;;;;;;;;;;;;;;;;5038027;28;19979;-80
2021/12/10 14:43:21;;;;;;;;;;;;;;;;;;5036900;28;19921;-80
2021/12/10 14:45:57;;;;;;;;;;;;;;;;;;5036792;28;20305;-80
2021/12/10 14:48:23;;;;;;;;;;;;;;;;;;5035475;28;19948;-79
2021/12/10 14:51:03;;;;;;;;;;;;;;;;;;5036683;28;20478;-80
2021/12/10 14:53:37;;;;;;;;;;;;;;;;;;5035558;28;19956;-79
2021/12/10 14:56:30;;;;;;;;;;;;;;;;;;5035736;28;20294;-80
2021/12/10 14:59:13;;;;;;;;;;;;;;;;;;5029719;28;20295;-79
2021/12/10 15:02:09;;;;;;;;;;;;;;;;;;5036598;28;20007;-80
2021/12/10 15:04:34;;;;;;;;;;;;;;;;;;5022890;28;20016;-80
2021/12/10 15:07:08;;;;;;;;;;;;;;;;;;5035507;28;20011;-79
2021/12/10 15:09:53;;;;;;;;;;;;;;;;;;5036598;28;20012;-79
2021/12/10 15:12:18;;;;;;;;;;;;;;;;;;5037328;28;19948;-80
2021/12/10 15:14:46;;;;;;;;;;;;;;;;;;5036590;28;20342;-80
2021/12/10 15:17:13;;;;;;;;;;;;;;;;;;5025797;28;20333;-80
2021/12/10 15:19:44;;;;;;;;;;;;;;;;;;5042448;28;20027;-80
2021/12/10 15:22:13;;;;;;;;;;;;;;;;;;5035997;28;19932;-80
2021/12/10 15:24:48;;;;;;;;;;;;;;;;;;5021378;28;20354;-81
2021/12/10 15:27:17;;;;;;;;;;;;;;;;;;5032247;28;20015;-81
2021/12/10 15:30:01;;;;;;;;;;;;;;;;;;5035526;28;19932;-80
2021/12/10 15:32:36;;;;;;;;;;;;;;;;;;5039319;28;19921;-81
2021/12/10 15:35:13;;;;;;;;;;;;;;;;;;5036274;28;19951;-81
2021/12/10 15:37:42;;;;;;;;;;;;;;;;;;5022939;28;20077;-80
2021/12/10 15:40:28;;;;;;;;;;;;;;;;;;5033236;28;19932;-80
2021/12/10 15:42:54;;;;;;;;;;;;;;;;;;5035937;28;19940;-81
2021/12/10 15:45:20;;;;;;;;;;;;;;;;;;5008549;28;20347;-80
2021/12/10 15:47:46;;;;;;;;;;;;;;;;;;5030837;28;19980;-81
2021/12/10 15:50:12;;;;;;;;;;;;;;;;;;5042215;28;19931;-81
2021/12/10 15:52:38;;;;;;;;;;;;;;;;;;5036272;28;20301;-81
2021/12/10 15:55:06;;;;;;;;;;;;;;;;;;5035563;28;20008;-80
2021/12/10 15:57:33;;;;;;;;;;;;;;;;;;5043112;28;20400;-81
2021/12/10 16:00:01;;;;;;;;;;;;;;;;;;5052345;28;19952;-81
2021/12/10 16:02:29;;;;;;;;;;;;;;;;;;5034915;28;19921;-82
2021/12/10 16:04:57;;;;;;;;;;;;;;;;;;5020291;28;19931;-81
2021/12/10 16:07:26;;;;;;;;;;;;;;;;;;5040240;28;20378;-82
2021/12/10 16:10:02;;;;;;;;;;;;;;;;;;5039948;28;19929;-82
2021/12/10 16:12:30;;;;;;;;;;;;;;;;;;5033040;28;19922;-81
2021/12/10 16:14:55;;;;;;;;;;;;;;;;;;5032740;28;19921;-81
2021/12/10 16:17:25;;;;;;;;;;;;;;;;;;5043114;28;19928;-81
2021/12/10 16:19:51;;;;;;;;;;;;;;;;;;5034623;28;19921;-81
2021/12/10 16:22:19;;;;;;;;;;;;;;;;;;5035971;28;20399;-81
2021/12/10 16:24:49;;;;;;;;;;;;;;;;;;5034371;28;19918;-81
2021/12/10 16:27:18;;;;;;;;;;;;;;;;;;5021892;28;19921;-82
2021/12/10 16:29:51;;;;;;;;;;;;;;;;;;5031732;28;19928;-80
2021/12/10 16:32:23;;;;;;;;;;;;;;;;;;5027467;28;19925;-80
2021/12/10 16:34:50;;;;;;;;;;;;;;;;;;5032583;28;19929;-80
2021/12/10 16:37:15;;;;;;;;;;;;;;;;;;5010974;28;20003;-81
2021/12/10 16:39:46;;;;;;;;;;;;;;;;;;5028351;28;20336;-80
2021/12/10 16:42:14;;;;;;;;;;;;;;;;;;5027129;28;19943;-86
2021/12/10 16:44:40;;;;;;;;;;;;;;;;;;5031681;28;19921;-88
2021/12/10 16:47:13;;;;;;;;;;;;;;;;;;5026088;28;20020;-88
2021/12/10 16:49:39;;;;;;;;;;;;;;;;;;5018974;28;19925;-88
2021/12/10 16:52:25;;;;;;;;;;;;;;;;;;5010173;28;20011;-80
2021/12/10 16:54:57;;;;;;;;;;;;;;;;;;5023997;28;19928;-85
2021/12/10 16:57:24;;;;;;;;;;;;;;;;;;5028384;28;19921;-87
2021/12/10 16:59:51;;;;;;;;;;;;;;;;;;5027886;28;19932;-82
2021/12/10 17:02:20;;;;;;;;;;;;;;;;;;5022472;28;19975;-85
2021/12/10 17:04:47;;;;;;;;;;;;;;;;;;5024898;28;20257;-83
2021/12/10 17:07:41;;;;;;;;;;;;;;;;;;5013774;28;20016;-84
2021/12/10 17:10:14;;;;;;;;;;;;;;;;;;5011780;28;20363;-84
2021/12/10 17:12:40;;;;;;;;;;;;;;;;;;5012858;28;20370;-84